Map

Track Data

SID SEASON NUMBER BASIN SUBBASIN NAME ISO_TIME NATURE LAT LON WMO_WIND WMO_PRES WMO_AGENCY TRACK_TYPE DIST2LAND LANDFALL IFLAG USA_AGENCY USA_ATCF_ID USA_LAT USA_LON USA_RECORD USA_STATUS USA_WIND USA_PRES USA_SSHS USA_R34_NE USA_R34_SE USA_R34_SW USA_R34_NW USA_R50_NE USA_R50_SE USA_R50_SW USA_R50_NW USA_R64_NE USA_R64_SE USA_R64_SW USA_R64_NW USA_POCI USA_ROCI USA_RMW USA_EYE TOKYO_LAT TOKYO_LON TOKYO_GRADE TOKYO_WIND TOKYO_PRES TOKYO_R50_DIR TOKYO_R50_LONG TOKYO_R50_SHORT TOKYO_R30_DIR TOKYO_R30_LONG TOKYO_R30_SHORT TOKYO_LAND CMA_LAT CMA_LON CMA_CAT CMA_WIND CMA_PRES HKO_LAT HKO_LON HKO_CAT HKO_WIND HKO_PRES NEWDELHI_LAT NEWDELHI_LON NEWDELHI_GRADE NEWDELHI_WIND NEWDELHI_PRES NEWDELHI_CI NEWDELHI_DP NEWDELHI_POCI REUNION_LAT REUNION_LON REUNION_TYPE REUNION_WIND REUNION_PRES REUNION_TNUM REUNION_CI REUNION_RMW REUNION_R34_NE REUNION_R34_SE REUNION_R34_SW REUNION_R34_NW REUNION_R50_NE REUNION_R50_SE REUNION_R50_SW REUNION_R50_NW REUNION_R64_NE REUNION_R64_SE REUNION_R64_SW REUNION_R64_NW BOM_LAT BOM_LON BOM_TYPE BOM_WIND BOM_PRES BOM_TNUM BOM_CI BOM_RMW BOM_R34_NE BOM_R34_SE BOM_R34_SW BOM_R34_NW BOM_R50_NE BOM_R50_SE BOM_R50_SW BOM_R50_NW BOM_R64_NE BOM_R64_SE BOM_R64_SW BOM_R64_NW BOM_ROCI BOM_POCI BOM_EYE BOM_POS_METHOD BOM_PRES_METHOD NADI_LAT NADI_LON NADI_CAT NADI_WIND NADI_PRES WELLINGTON_LAT WELLINGTON_LON WELLINGTON_WIND WELLINGTON_PRES DS824_LAT DS824_LON DS824_STAGE DS824_WIND DS824_PRES TD9636_LAT TD9636_LON TD9636_STAGE TD9636_WIND TD9636_PRES TD9635_LAT TD9635_LON TD9635_WIND TD9635_PRES TD9635_ROCI NEUMANN_LAT NEUMANN_LON NEUMANN_CLASS NEUMANN_WIND NEUMANN_PRES MLC_LAT MLC_LON MLC_CLASS MLC_WIND MLC_PRES USA_GUST BOM_GUST BOM_GUST_PER REUNION_GUST REUNION_GUST_PER USA_SEAHGT USA_SEARAD_NE USA_SEARAD_SE USA_SEARAD_SW USA_SEARAD_NW STORM_SPEED STORM_DIR
1891069S11064 1891 7 SI MM NOT_NAMED 1891-03-10 00:00:00 TS -11.0000 64.2000 main 1233 1185 _________O____ -1 -11.0000 64.2000 TC 11 248
1891069S11064 1891 7 SI MM NOT_NAMED 1891-03-10 03:00:00 TS -11.2002 63.7001 main 1185 1137 _________P____ -1 -11.2002 63.7001 TC 11 248
1891069S11064 1891 7 SI MM NOT_NAMED 1891-03-10 06:00:00 TS -11.4000 63.2000 main 1137 1091 _________O____ -1 -11.4000 63.2000 TC 11 248
1891069S11064 1891 7 SI MM NOT_NAMED 1891-03-10 09:00:00 TS -11.5999 62.6999 main 1091 1045 _________P____ -1 -11.5999 62.6999 TC 11 248
1891069S11064 1891 7 SI MM NOT_NAMED 1891-03-10 12:00:00 TS -11.8000 62.2000 main 1045 1002 _________O____ -1 -11.8000 62.2000 TC 11 248
1891069S11064 1891 7 SI MM NOT_NAMED 1891-03-10 15:00:00 TS -11.9924 61.6999 main 1002 959 _________P____ -1 -11.9924 61.6999 TC 11 248
1891069S11064 1891 7 SI MM NOT_NAMED 1891-03-10 18:00:00 TS -12.2000 61.2000 main 959 919 _________O____ -1 -12.2000 61.2000 TC 11 245
1891069S11064 1891 7 SI MM NOT_NAMED 1891-03-10 21:00:00 TS -12.4348 60.7223 main 919 870 _________P____ -1 -12.4348 60.7223 TC 11 243
1891069S11064 1891 7 SI MM NOT_NAMED 1891-03-11 00:00:00 TS -12.7000 60.2000 main 870 819 _________O____ -1 -12.7000 60.2000 TC 13 244
1891069S11064 1891 7 SI MM NOT_NAMED 1891-03-11 03:00:00 TS -12.9850 59.5724 main 819 771 _________P____ -1 -12.9850 59.5724 TC 14 245
1891069S11064 1891 7 SI MM NOT_NAMED 1891-03-11 06:00:00 TS -13.3000 58.9000 main 771 730 _________O____ -1 -13.3000 58.9000 TC 14 243
1891069S11064 1891 7 SI MM NOT_NAMED 1891-03-11 09:00:00 TS -13.6347 58.2647 main 730 682 _________P____ -1 -13.6347 58.2647 TC 14 241
1891069S11064 1891 7 SI MM NOT_NAMED 1891-03-11 12:00:00 TS -14.0000 57.6000 main 682 641 _________O____ -1 -14.0000 57.6000 TC 16 241
1891069S11064 1891 7 SI MM NOT_NAMED 1891-03-11 15:00:00 TS -14.3925 56.8574 main 641 603 _________P____ -1 -14.3925 56.8574 TC 17 241
1891069S11064 1891 7 SI MM NOT_NAMED 1891-03-11 18:00:00 TS -14.8000 56.1000 main 603 536 _________O____ -1 -14.8000 56.1000 TC 16 243
1891069S11064 1891 7 SI MM NOT_NAMED 1891-03-11 21:00:00 TS -15.0944 55.4280 main 526 450 _________P____ -1 -15.0944 55.4280 TC 16 239
1891069S11064 1891 7 SI MM NOT_NAMED 1891-03-12 00:00:00 TS -15.6000 54.7000 main 450 363 _________O____ -1 -15.6000 54.7000 TC 23 229
1891069S11064 1891 7 SI MM NOT_NAMED 1891-03-12 03:00:00 TS -16.5589 53.6628 main 367 334 _________P____ -1 -16.5589 53.6628 TC 29 220
1891069S11064 1891 7 SI MM NOT_NAMED 1891-03-12 06:00:00 TS -17.8000 52.8000 main 337 328 _________O____ -1 -17.8000 52.8000 TC 28 204
1891069S11064 1891 7 SI MM NOT_NAMED 1891-03-12 09:00:00 TS -19.1263 52.4531 main 341 281 _________P____ -1 -19.1263 52.4531 TC 27 184
1891069S11064 1891 7 SI MM NOT_NAMED 1891-03-12 12:00:00 TS -20.5000 52.6000 main 278 227 _________O____ -1 -20.5000 52.6000 TC 28 167
1891069S11064 1891 7 SI MM NOT_NAMED 1891-03-12 15:00:00 TS -21.8096 53.1191 main 230 219 _________P____ -1 -21.8096 53.1191 TC 28 153
1891069S11064 1891 7 SI MM NOT_NAMED 1891-03-12 18:00:00 TS -23.0000 54.0000 main 232 232 _________O____ -1 -23.0000 54.0000 TC 30 141
1891069S11064 1891 7 SI MM NOT_NAMED 1891-03-12 21:00:00 TS -24.1019 55.1346 main 306 306 _________P____ -1 -24.1019 55.1346 TC 28 133
1891069S11064 1891 7 SI MM NOT_NAMED 1891-03-13 00:00:00 TS -24.9000 56.2000 main 395 395 _________O____ -1 -24.9000 56.2000 TC 19 128
1891069S11064 1891 7 SI MM NOT_NAMED 1891-03-13 03:00:00 TS -25.2609 56.7504 main 452 452 _________P____ -1 -25.2609 56.7504 TC 10 122
1891069S11064 1891 7 SI MM NOT_NAMED 1891-03-13 06:00:00 TS -25.4000 57.1000 main 472 472 _________O____ -1 -25.4000 57.1000 TC 8 115
1891069S11064 1891 7 SI MM NOT_NAMED 1891-03-13 09:00:00 TS -25.6074 57.5577 main 511 511 _________P____ -1 -25.6074 57.5577 TC 9 116
1891069S11064 1891 7 SI MM NOT_NAMED 1891-03-13 12:00:00 TS -25.8000 58.0000 main 549 549 _________O____ -1 -25.8000 58.0000 TC 9 117
1891069S11064 1891 7 SI MM NOT_NAMED 1891-03-13 15:00:00 TS -25.9998 58.4002 main 587 587 _________P____ -1 -25.9998 58.4002 TC 8 119
1891069S11064 1891 7 SI MM NOT_NAMED 1891-03-13 18:00:00 TS -26.2000 58.8000 main 626 626 _________O____ -1 -26.2000 58.8000 TC 9 118
1891069S11064 1891 7 SI MM NOT_NAMED 1891-03-13 21:00:00 TS -26.4075 59.2500 main 671 666 _________P____ -1 -26.4075 59.2500 TC 9 116
1891069S11064 1891 7 SI MM NOT_NAMED 1891-03-14 00:00:00 TS -26.6000 59.7000 main 711 711 _________O____ -1 -26.6000 59.7000 TC 8 115
1891069S11064 1891 7 SI MM NOT_NAMED 1891-03-14 03:00:00 TS -26.7573 60.1077 main 745 745 _________P____ -1 -26.7573 60.1077 TC 8 113
1891069S11064 1891 7 SI MM NOT_NAMED 1891-03-14 06:00:00 TS -26.9000 60.5000 main 769 769 _________O____ -1 -26.9000 60.5000 TC 8 112
1891069S11064 1891 7 SI MM NOT_NAMED 1891-03-14 09:00:00 TS -27.0499 60.9076 main 795 795 _________P____ -1 -27.0499 60.9076 TC 8 113
1891069S11064 1891 7 SI MM NOT_NAMED 1891-03-14 12:00:00 TS -27.2000 61.3000 main 833 833 _________O____ -1 -27.2000 61.3000 TC 7 114
1891069S11064 1891 7 SI MM NOT_NAMED 1891-03-14 15:00:00 TS -27.3499 61.6576 main 861 861 _________P____ -1 -27.3499 61.6576 TC 7 116
1891069S11064 1891 7 SI MM NOT_NAMED 1891-03-14 18:00:00 TS -27.5000 62.0000 main 895 895 _________O____ -1 -27.5000 62.0000 TC 7 116
1891069S11064 1891 7 SI MM NOT_NAMED 1891-03-14 21:00:00 TS -27.6499 62.3426 main 920 920 _________P____ -1 -27.6499 62.3426 TC 7 116
1891069S11064 1891 7 SI MM NOT_NAMED 1891-03-15 00:00:00 TS -27.8000 62.7000 main 960 960 _________O____ -1 -27.8000 62.7000 TC 7 115
1891069S11064 1891 7 SI MM NOT_NAMED 1891-03-15 03:00:00 TS -27.9499 63.0851 main 991 991 _________P____ -1 -27.9499 63.0851 TC 8 113
1891069S11064 1891 7 SI MM NOT_NAMED 1891-03-15 06:00:00 TS -28.1000 63.5000 main 1032 1032 _________O____ -1 -28.1000 63.5000 TC 8 112
1891069S11064 1891 7 SI MM NOT_NAMED 1891-03-15 09:00:00 TS -28.2576 63.9649 main 1079 1079 _________P____ -1 -28.2576 63.9649 TC 8 111
1891069S11064 1891 7 SI MM NOT_NAMED 1891-03-15 12:00:00 TS -28.4000 64.4000 main 1112 1112 _________O____ -1 -28.4000 64.4000 TC 7 111
1891069S11064 1891 7 SI MM NOT_NAMED 1891-03-15 15:00:00 TS -28.5072 64.7152 main 1139 1139 _________P____ -1 -28.5072 64.7152 TC 6 111
1891069S11064 1891 7 SI MM NOT_NAMED 1891-03-15 18:00:00 TS -28.6000 65.0000 main 1167 1167 _________O____ -1 -28.6000 65.0000 TC 6 109
1891069S11064 1891 7 SI MM NOT_NAMED 1891-03-15 21:00:00 TS -28.6978 65.3323 main 1194 1194 _________P____ -1 -28.6978 65.3323 TC 6 108
1891069S11064 1891 7 SI MM NOT_NAMED 1891-03-16 00:00:00 TS -28.8000 65.7000 main 1229 _________O____ -1 -28.8000 65.7000 TC 7 108

About IBTrACS Database

This database is a web-friendly format of International Best Track Archive for Climate Stewardship (IBTrACS), a global best track data archive curated by NOAA dating back to 1842.

Updated: 2021-11-26